Swanton, Ohio
Current Conditions -  °F | °C
As of 5:52 AM on Friday 31 Oct 2014 (Local Time) from KTOL Reporting Station
Overcast Overcast  
Wind Chill: 39°   Ceiling: 6000
Heat Index: 43°   Visibility: 10mi
Dew Point: 35°   Wind: 6mph
Humidity: 74%   Direction: 220°SW
Pressure: 29.94"   Gusts: NA
Location:  41.59°N, 83.89°W
Report Text: KTOL 310952Z 22005KT 10SM FEW043 OVC060 06/02 A2994 RMK AO2 SLP141 T00610017
Loading
Personal Weather Stations






























Interactive Weather Map
Tropical Storm Tracking
New forecast layout! Learn more

10-Day Weather Forecast

Advertisements
Track Severe Weather on mobile